createdAt,value
2019-03-31T00:01:46.839Z,67.00
2019-03-31T00:04:16.850Z,67.00
2019-03-31T00:06:46.868Z,67.00
2019-03-31T00:09:16.835Z,67.00
2019-03-31T00:11:46.839Z,67.40
2019-03-31T00:14:16.823Z,67.60
2019-03-31T00:16:46.789Z,67.60
2019-03-31T00:19:16.747Z,68.00
2019-03-31T00:21:46.732Z,68.20
2019-03-31T00:24:16.703Z,68.90
2019-03-31T00:26:46.716Z,68.90
2019-03-31T00:29:16.688Z,69.10
2019-03-31T00:31:46.683Z,68.50
2019-03-31T00:34:16.898Z,68.30
2019-03-31T00:36:47.007Z,67.90
2019-03-31T00:39:16.987Z,67.80
2019-03-31T00:41:46.987Z,67.90
2019-03-31T00:44:16.899Z,67.80
2019-03-31T00:46:46.893Z,67.80
2019-03-31T00:49:17.130Z,67.90
2019-03-31T00:51:47.107Z,67.70
2019-03-31T00:54:17.571Z,68.00
2019-03-31T00:56:48.215Z,68.40
2019-03-31T00:59:19.971Z,68.60
2019-03-31T01:01:55.791Z,69.20
2019-03-31T01:04:28.998Z,69.50
2019-03-31T01:06:59.278Z,70.00
2019-03-31T01:09:32.444Z,70.80
2019-03-31T01:12:04.093Z,71.40
2019-03-31T01:14:34.187Z,72.80
2019-03-31T01:17:06.852Z,73.50
2019-03-31T01:19:36.855Z,74.20
2019-03-31T01:22:06.928Z,74.90
2019-03-31T01:24:36.924Z,75.40
2019-03-31T01:27:09.525Z,75.90
2019-03-31T01:29:40.643Z,76.00
2019-03-31T01:32:11.486Z,75.50
2019-03-31T01:34:42.775Z,74.70
2019-03-31T01:37:13.833Z,74.10
2019-03-31T01:39:46.312Z,73.90
2019-03-31T01:42:17.939Z,73.20
2019-03-31T01:44:47.935Z,72.70
2019-03-31T01:47:18.097Z,72.80
2019-03-31T01:49:48.408Z,72.90
2019-03-31T01:52:18.402Z,72.30
2019-03-31T01:54:48.388Z,72.20
2019-03-31T01:57:19.399Z,72.30
2019-03-31T01:59:49.498Z,71.70
2019-03-31T02:02:26.914Z,71.90
2019-03-31T02:04:56.938Z,72.00
2019-03-31T02:07:26.896Z,72.30
2019-03-31T02:09:57.163Z,72.80
2019-03-31T02:12:27.161Z,72.80
2019-03-31T02:14:57.132Z,72.80
2019-03-31T02:17:27.077Z,72.50
2019-03-31T02:19:57.055Z,72.90
2019-03-31T02:22:27.020Z,72.90
2019-03-31T02:24:57.003Z,73.00
2019-03-31T02:27:26.959Z,72.90
2019-03-31T02:29:56.940Z,72.90
2019-03-31T02:32:26.891Z,72.80
2019-03-31T02:34:56.858Z,73.50
2019-03-31T02:37:26.850Z,73.60
2019-03-31T02:39:57.374Z,73.90
2019-03-31T02:42:27.575Z,74.50
2019-03-31T02:44:57.515Z,74.40
2019-03-31T02:47:27.570Z,74.70
2019-03-31T02:49:57.476Z,75.00
2019-03-31T02:52:27.455Z,75.40
2019-03-31T02:54:57.494Z,75.40
2019-03-31T02:57:28.683Z,75.50
2019-03-31T03:00:00.048Z,75.80
2019-03-31T03:02:41.618Z,76.20
2019-03-31T03:05:18.881Z,76.50
2019-03-31T03:07:39.823Z,77.20
2019-03-31T03:10:09.829Z,77.80
2019-03-31T03:12:42.191Z,78.00
2019-03-31T03:15:13.884Z,78.00
2019-03-31T03:17:43.890Z,78.20
2019-03-31T03:20:14.069Z,77.90
2019-03-31T03:22:44.042Z,77.90
2019-03-31T03:25:14.326Z,78.30
2019-03-31T03:27:44.296Z,78.60
2019-03-31T03:30:14.261Z,78.50
2019-03-31T03:33:12.171Z,78.80
2019-03-31T03:35:15.970Z,78.40
2019-03-31T03:37:45.926Z,78.50
2019-03-31T03:40:16.158Z,78.30
2019-03-31T03:42:46.163Z,78.40
2019-03-31T03:45:16.146Z,78.00
2019-03-31T03:47:46.144Z,77.60
2019-03-31T03:50:16.123Z,77.70
2019-03-31T03:52:46.078Z,77.80
2019-03-31T03:55:16.069Z,77.80
2019-03-31T03:57:46.386Z,77.70
2019-03-31T04:00:16.485Z,77.40
2019-03-31T04:02:46.476Z,77.50
2019-03-31T04:05:16.510Z,77.10
2019-03-31T04:07:46.487Z,77.50
2019-03-31T04:11:04.946Z,77.80
2019-03-31T04:13:35.044Z,78.20
2019-03-31T04:16:05.043Z,78.60
2019-03-31T04:18:35.019Z,78.90
2019-03-31T04:21:05.022Z,78.70
2019-03-31T04:23:34.972Z,78.90
2019-03-31T04:26:04.987Z,79.00
2019-03-31T04:28:34.942Z,79.10
2019-03-31T04:31:04.976Z,79.40
2019-03-31T04:33:49.485Z,79.40
2019-03-31T04:36:06.815Z,79.50
2019-03-31T04:38:37.070Z,79.60
2019-03-31T04:41:07.080Z,79.50
2019-03-31T04:43:37.071Z,79.40
2019-03-31T04:46:07.044Z,79.50
2019-03-31T04:48:37.039Z,79.60
2019-03-31T04:51:07.033Z,79.40
2019-03-31T04:53:36.995Z,80.00
2019-03-31T04:56:06.970Z,80.00
2019-03-31T04:58:36.911Z,80.50
2019-03-31T05:01:06.890Z,80.90
2019-03-31T05:03:36.900Z,80.50
2019-03-31T05:06:07.137Z,80.70
2019-03-31T05:08:37.088Z,81.00
2019-03-31T05:11:07.076Z,80.80
2019-03-31T05:13:37.036Z,80.90
2019-03-31T05:16:07.009Z,80.60
2019-03-31T05:18:36.969Z,80.60
2019-03-31T05:21:06.943Z,80.50
2019-03-31T05:23:37.150Z,80.70
2019-03-31T05:26:07.497Z,79.50
2019-03-31T05:28:37.709Z,79.60
2019-03-31T05:31:07.707Z,79.20
2019-03-31T05:33:37.666Z,78.60
2019-03-31T05:36:07.638Z,78.80
2019-03-31T05:38:37.601Z,78.60
2019-03-31T05:41:07.599Z,78.50
2019-03-31T05:43:37.675Z,78.40
2019-03-31T05:46:07.636Z,78.30
2019-03-31T05:48:37.619Z,78.10
2019-03-31T05:51:07.571Z,78.00
2019-03-31T05:53:37.555Z,77.80
2019-03-31T05:56:07.875Z,77.40
2019-03-31T05:58:37.861Z,76.60
2019-03-31T06:01:07.930Z,76.20
2019-03-31T06:03:37.955Z,75.90
2019-03-31T06:06:07.919Z,75.70
2019-03-31T06:08:37.868Z,75.00
2019-03-31T06:11:08.143Z,74.80
2019-03-31T06:13:38.227Z,74.40
2019-03-31T06:16:08.215Z,74.00
2019-03-31T06:18:38.179Z,73.90
2019-03-31T06:21:08.292Z,73.60
2019-03-31T06:23:38.611Z,73.40
2019-03-31T06:26:08.570Z,72.80
2019-03-31T06:28:38.552Z,72.70
2019-03-31T06:31:08.498Z,71.90
2019-03-31T06:33:38.742Z,71.30
2019-03-31T06:36:08.702Z,71.20
2019-03-31T06:38:38.682Z,70.70
2019-03-31T06:41:08.930Z,70.30
2019-03-31T06:43:38.909Z,69.90
2019-03-31T06:46:08.902Z,69.40
2019-03-31T06:48:38.879Z,69.40
2019-03-31T06:51:08.836Z,68.70
2019-03-31T06:53:38.806Z,68.40
2019-03-31T06:56:08.775Z,68.10
2019-03-31T06:58:39.138Z,68.10
2019-03-31T07:01:09.228Z,67.60
2019-03-31T07:03:39.204Z,67.20
2019-03-31T07:06:09.262Z,66.40
2019-03-31T07:08:39.246Z,66.20
2019-03-31T07:11:09.221Z,66.00
2019-03-31T07:13:39.209Z,66.00
2019-03-31T07:16:09.158Z,66.10
2019-03-31T07:18:39.159Z,66.10
2019-03-31T07:21:09.138Z,66.30
2019-03-31T07:23:39.131Z,66.00
2019-03-31T07:26:09.379Z,65.30
2019-03-31T07:28:39.441Z,64.60
2019-03-31T07:31:09.437Z,63.30
2019-03-31T07:33:39.457Z,62.60
2019-03-31T07:36:09.463Z,62.20
2019-03-31T07:38:39.838Z,61.60
2019-03-31T07:41:13.001Z,61.30
2019-03-31T07:43:41.843Z,60.20
2019-03-31T07:46:12.076Z,60.20
2019-03-31T07:48:42.438Z,59.60
2019-03-31T07:51:12.774Z,59.40
2019-03-31T07:53:42.896Z,58.70
2019-03-31T07:56:15.946Z,58.60
2019-03-31T07:58:44.795Z,58.70
2019-03-31T08:01:14.690Z,58.10
2019-03-31T08:03:44.694Z,58.80
2019-03-31T08:06:15.037Z,58.20
2019-03-31T08:08:45.281Z,57.50
2019-03-31T08:11:17.096Z,57.50
2019-03-31T08:13:47.325Z,57.30
2019-03-31T08:16:17.287Z,56.60
2019-03-31T08:18:47.291Z,56.20
2019-03-31T08:21:17.271Z,55.90
2019-03-31T08:23:47.245Z,54.90
2019-03-31T08:26:17.258Z,54.20
2019-03-31T08:28:47.222Z,52.10
2019-03-31T08:31:17.217Z,52.10
2019-03-31T08:33:47.454Z,52.00
2019-03-31T08:36:17.463Z,51.90
2019-03-31T08:38:47.439Z,51.50
2019-03-31T08:41:17.473Z,50.80
2019-03-31T08:43:47.468Z,50.10
2019-03-31T08:46:17.781Z,48.80
2019-03-31T08:48:47.790Z,49.30
2019-03-31T08:51:17.751Z,48.70
2019-03-31T08:53:47.730Z,47.90
2019-03-31T08:56:18.082Z,47.90
2019-03-31T08:58:48.067Z,47.60
2019-03-31T09:01:18.351Z,47.60
2019-03-31T09:03:48.384Z,47.30
2019-03-31T09:06:18.333Z,47.10
2019-03-31T09:08:48.311Z,46.50
2019-03-31T09:11:18.282Z,45.90
2019-03-31T09:13:48.255Z,46.00
2019-03-31T09:16:18.513Z,45.40
2019-03-31T09:18:48.499Z,45.80
2019-03-31T09:21:18.475Z,45.20
2019-03-31T09:23:48.465Z,43.40
2019-03-31T09:26:18.500Z,41.70
2019-03-31T09:28:48.464Z,41.60
2019-03-31T09:31:18.481Z,41.20
2019-03-31T09:33:48.443Z,42.10
2019-03-31T09:36:18.443Z,42.50
2019-03-31T09:38:48.691Z,42.30
2019-03-31T09:41:18.701Z,41.10
2019-03-31T09:43:48.669Z,39.40
2019-03-31T09:46:18.689Z,39.40
2019-03-31T09:48:48.647Z,39.70
2019-03-31T09:51:19.032Z,40.30
2019-03-31T09:53:49.027Z,40.60
2019-03-31T09:56:18.991Z,41.00
2019-03-31T09:58:49.003Z,41.10
2019-03-31T10:01:19.015Z,38.40
2019-03-31T10:03:49.038Z,38.50
2019-03-31T10:06:29.562Z,39.90
2019-03-31T10:08:50.916Z,39.70
2019-03-31T10:11:21.590Z,39.70
2019-03-31T10:13:51.587Z,39.90
2019-03-31T10:16:21.583Z,39.10
2019-03-31T10:18:51.683Z,40.00
2019-03-31T10:21:25.026Z,38.10
2019-03-31T10:23:55.849Z,39.10
2019-03-31T10:26:31.779Z,37.10
2019-03-31T10:28:58.619Z,36.60
2019-03-31T10:31:30.686Z,35.70
2019-03-31T10:34:00.674Z,36.40
2019-03-31T10:36:43.493Z,34.80
2019-03-31T10:39:02.663Z,35.50
2019-03-31T10:41:33.448Z,34.90
2019-03-31T10:44:03.838Z,34.10
2019-03-31T10:46:35.149Z,34.80
2019-03-31T10:49:05.511Z,35.10
2019-03-31T10:51:36.649Z,34.20
2019-03-31T10:54:07.205Z,35.80
2019-03-31T10:56:37.236Z,34.70
2019-03-31T10:59:07.334Z,35.40
2019-03-31T11:01:37.405Z,35.70
2019-03-31T11:04:07.360Z,34.90
2019-03-31T11:06:37.840Z,34.60
2019-03-31T11:09:08.694Z,33.90
2019-03-31T11:11:38.745Z,33.60
2019-03-31T11:14:08.899Z,33.70
2019-03-31T11:16:38.902Z,33.40
2019-03-31T11:19:09.039Z,33.10
2019-03-31T11:21:56.568Z,32.20
2019-03-31T11:24:26.579Z,32.10
2019-03-31T11:26:56.545Z,31.30
2019-03-31T11:29:26.736Z,32.00
2019-03-31T11:31:57.635Z,32.10
2019-03-31T11:34:28.187Z,33.10
2019-03-31T11:37:12.529Z,33.80
2019-03-31T11:39:30.856Z,33.60
2019-03-31T11:42:01.612Z,33.70
2019-03-31T11:44:31.909Z,32.00
2019-03-31T11:47:01.925Z,32.20
2019-03-31T11:49:38.676Z,32.30
2019-03-31T11:52:08.831Z,31.50
2019-03-31T11:54:39.495Z,30.90
2019-03-31T11:57:09.685Z,31.80
2019-03-31T11:59:39.911Z,32.30
2019-03-31T12:02:10.279Z,32.50
2019-03-31T12:04:40.287Z,31.40
2019-03-31T12:07:10.259Z,30.70
2019-03-31T12:09:40.536Z,29.70
2019-03-31T12:12:10.635Z,27.70
2019-03-31T12:14:41.415Z,28.70
2019-03-31T12:17:11.382Z,27.70
2019-03-31T12:19:41.386Z,26.30
2019-03-31T12:22:11.338Z,26.90
2019-03-31T12:24:41.343Z,26.60
2019-03-31T12:27:11.330Z,27.50
2019-03-31T12:29:41.334Z,27.00
2019-03-31T12:32:11.294Z,28.20
2019-03-31T12:34:41.564Z,28.50
2019-03-31T12:37:11.563Z,27.00
2019-03-31T12:39:41.865Z,26.10
2019-03-31T12:42:11.854Z,28.30
2019-03-31T12:44:42.307Z,27.30
2019-03-31T12:47:12.578Z,27.10
2019-03-31T12:49:42.628Z,27.10
2019-03-31T12:52:12.619Z,27.70
2019-03-31T12:54:42.950Z,28.70
2019-03-31T12:57:13.082Z,27.70
2019-03-31T12:59:43.106Z,26.80
2019-03-31T13:02:13.073Z,27.30
2019-03-31T13:04:43.073Z,27.20
2019-03-31T13:07:14.889Z,27.00
2019-03-31T13:09:44.972Z,26.50
2019-03-31T13:12:15.276Z,25.70
2019-03-31T13:14:45.235Z,26.70
2019-03-31T13:17:15.236Z,26.10
2019-03-31T13:19:45.216Z,25.80
2019-03-31T13:22:15.222Z,25.50
2019-03-31T13:24:45.190Z,25.50
2019-03-31T13:27:15.187Z,26.50
2019-03-31T13:29:45.159Z,27.00
2019-03-31T13:32:15.172Z,25.40
2019-03-31T13:34:45.281Z,26.20
2019-03-31T13:37:15.672Z,26.30
2019-03-31T13:39:45.669Z,24.80
2019-03-31T13:42:15.682Z,25.40
2019-03-31T13:44:45.922Z,25.20
2019-03-31T13:47:16.198Z,25.30
2019-03-31T13:49:46.171Z,25.40
2019-03-31T13:52:16.165Z,25.50
2019-03-31T13:54:46.538Z,24.70
2019-03-31T13:57:16.944Z,25.00
2019-03-31T13:59:47.221Z,24.90
2019-03-31T14:02:17.230Z,25.90
2019-03-31T14:04:51.898Z,24.80
2019-03-31T14:07:19.631Z,24.80
2019-03-31T14:09:49.615Z,24.80
2019-03-31T14:12:19.635Z,25.00
2019-03-31T14:14:49.595Z,25.10
2019-03-31T14:17:19.585Z,25.10
2019-03-31T14:19:49.559Z,25.10
2019-03-31T14:22:19.557Z,24.50
2019-03-31T14:24:49.562Z,25.10
2019-03-31T14:27:19.683Z,24.50
2019-03-31T14:29:50.047Z,24.30
2019-03-31T14:32:19.998Z,24.20
2019-03-31T14:34:50.050Z,24.50
2019-03-31T14:37:20.047Z,24.80
2019-03-31T14:39:50.046Z,25.10
2019-03-31T14:42:20.013Z,24.60
2019-03-31T14:44:50.016Z,24.60
2019-03-31T14:47:20.243Z,25.20
2019-03-31T14:49:50.228Z,24.20
2019-03-31T14:52:27.231Z,24.50
2019-03-31T14:54:51.839Z,24.40
2019-03-31T14:57:21.823Z,24.30
2019-03-31T14:59:51.804Z,24.20
2019-03-31T15:02:22.082Z,24.00
2019-03-31T15:04:52.068Z,23.90
2019-03-31T15:07:22.151Z,24.20
2019-03-31T15:09:52.137Z,24.40
2019-03-31T15:12:22.112Z,25.10
2019-03-31T15:14:52.384Z,24.90
2019-03-31T15:17:22.363Z,24.60
2019-03-31T15:19:52.403Z,24.50
2019-03-31T15:22:22.500Z,25.10
2019-03-31T15:24:52.523Z,25.00
2019-03-31T15:27:23.269Z,25.00
2019-03-31T15:29:53.274Z,25.80
2019-03-31T15:32:23.225Z,25.70
2019-03-31T15:34:53.238Z,26.10
2019-03-31T15:37:23.357Z,25.80
2019-03-31T15:39:53.967Z,26.00
2019-03-31T15:42:23.931Z,26.20
2019-03-31T15:44:53.914Z,25.90
2019-03-31T15:47:23.906Z,25.50
2019-03-31T15:49:53.923Z,26.00
2019-03-31T15:52:23.883Z,25.80
2019-03-31T15:54:53.888Z,25.50
2019-03-31T15:57:23.853Z,24.70
2019-03-31T15:59:53.896Z,25.60
2019-03-31T16:02:24.933Z,25.50
2019-03-31T16:04:54.938Z,25.50
2019-03-31T16:07:24.959Z,24.80
2019-03-31T16:09:54.419Z,25.00
2019-03-31T16:12:23.947Z,25.50
2019-03-31T16:14:53.400Z,25.50
2019-03-31T16:17:22.849Z,24.80
2019-03-31T16:19:53.386Z,24.70
2019-03-31T16:22:23.185Z,25.00
2019-03-31T16:24:54.980Z,25.00
2019-03-31T16:27:24.658Z,25.40
2019-03-31T16:29:54.148Z,25.50
2019-03-31T16:32:23.566Z,26.10
2019-03-31T16:34:53.051Z,25.70
2019-03-31T16:37:22.504Z,25.40
2019-03-31T16:39:51.967Z,24.60
2019-03-31T16:42:21.747Z,25.30
2019-03-31T16:44:57.996Z,25.40
2019-03-31T16:47:22.854Z,26.10
2019-03-31T16:49:52.647Z,26.20
2019-03-31T16:52:22.087Z,26.30
2019-03-31T16:54:51.530Z,26.30
2019-03-31T16:57:20.981Z,26.80
2019-03-31T16:59:50.402Z,27.00
2019-03-31T17:02:19.871Z,26.50
2019-03-31T17:04:49.451Z,26.40
2019-03-31T17:07:19.201Z,26.30
2019-03-31T17:09:51.785Z,26.20
2019-03-31T17:12:19.999Z,26.40
2019-03-31T17:14:49.430Z,26.50
2019-03-31T17:17:19.004Z,26.40
2019-03-31T17:19:48.417Z,26.70
2019-03-31T17:22:17.868Z,26.50
2019-03-31T17:24:47.287Z,27.00
2019-03-31T17:27:16.928Z,27.00
2019-03-31T17:29:46.350Z,27.20
2019-03-31T17:32:16.163Z,27.30
2019-03-31T17:34:46.220Z,27.50
2019-03-31T17:37:15.680Z,27.70
2019-03-31T17:39:45.084Z,28.20
2019-03-31T17:42:14.535Z,28.30
2019-03-31T17:44:43.967Z,28.60
2019-03-31T17:47:13.385Z,28.70
2019-03-31T17:49:42.861Z,28.90
2019-03-31T17:52:12.317Z,29.30
2019-03-31T17:54:41.774Z,29.60
2019-03-31T17:57:12.108Z,29.60
2019-03-31T17:59:41.637Z,29.60
2019-03-31T18:02:11.452Z,29.60
2019-03-31T18:04:41.063Z,29.50
2019-03-31T18:07:10.493Z,29.70
2019-03-31T18:09:40.225Z,30.00
2019-03-31T18:12:10.054Z,30.10
2019-03-31T18:14:39.504Z,30.00
2019-03-31T18:17:08.999Z,30.50
2019-03-31T18:19:38.510Z,30.50
2019-03-31T18:22:16.223Z,30.80
2019-03-31T18:24:39.464Z,30.90
2019-03-31T18:27:08.899Z,31.10
2019-03-31T18:29:38.930Z,31.60
2019-03-31T18:32:08.366Z,31.90
2019-03-31T18:34:37.785Z,32.20
2019-03-31T18:37:07.314Z,32.60
2019-03-31T18:39:37.209Z,32.70
2019-03-31T18:42:07.062Z,32.90
2019-03-31T18:44:36.542Z,33.30
2019-03-31T18:47:06.099Z,33.50
2019-03-31T18:49:35.516Z,33.80
2019-03-31T18:52:04.987Z,34.20
2019-03-31T18:54:48.217Z,34.30
2019-03-31T18:57:36.615Z,34.70
2019-03-31T19:00:29.934Z,35.10
2019-03-31T19:03:24.432Z,35.40
2019-03-31T19:06:17.650Z,35.70
2019-03-31T19:09:04.935Z,36.00
2019-03-31T19:11:44.597Z,36.20
2019-03-31T19:14:32.996Z,36.60
2019-03-31T19:17:33.507Z,36.50
2019-03-31T19:20:27.777Z,36.70
2019-03-31T19:23:25.267Z,37.20
2019-03-31T19:26:13.657Z,37.80
2019-03-31T19:29:00.985Z,38.50
2019-03-31T19:31:47.142Z,38.80
2019-03-31T19:34:39.755Z,39.40
2019-03-31T19:37:22.735Z,40.10
2019-03-31T19:40:11.770Z,40.30
2019-03-31T19:43:02.943Z,40.60
2019-03-31T19:45:39.594Z,41.30
2019-03-31T19:48:14.799Z,41.70
2019-03-31T19:51:12.401Z,42.00
2019-03-31T19:54:01.115Z,42.40
2019-03-31T19:56:48.144Z,42.70
2019-03-31T19:59:35.275Z,43.00
2019-03-31T20:02:18.409Z,43.70
2019-03-31T20:05:09.222Z,44.30
2019-03-31T20:07:57.025Z,44.20
2019-03-31T20:10:45.452Z,44.30
2019-03-31T20:13:36.631Z,44.80
2019-03-31T20:16:23.439Z,45.40
2019-03-31T20:19:10.751Z,46.10
2019-03-31T20:21:45.943Z,46.40
2019-03-31T20:24:24.259Z,46.50
2019-03-31T20:27:13.005Z,46.80
2019-03-31T20:30:04.851Z,47.40
2019-03-31T20:32:52.180Z,47.90
2019-03-31T20:35:43.393Z,48.20
2019-03-31T20:38:22.289Z,48.30
2019-03-31T20:41:05.103Z,48.40
2019-03-31T20:43:52.025Z,48.90
2019-03-31T20:46:22.046Z,48.90
2019-03-31T20:48:51.800Z,49.40
2019-03-31T20:51:21.496Z,49.70
2019-03-31T20:53:51.292Z,49.90
2019-03-31T20:56:21.036Z,50.00
2019-03-31T20:58:50.772Z,49.90
2019-03-31T21:01:20.626Z,50.30
2019-03-31T21:03:50.922Z,50.80
2019-03-31T21:06:20.738Z,51.50
2019-03-31T21:08:50.206Z,51.60
2019-03-31T21:11:19.927Z,51.70
2019-03-31T21:13:49.742Z,51.70
2019-03-31T21:16:19.176Z,52.00
2019-03-31T21:18:48.674Z,52.30
2019-03-31T21:21:18.678Z,52.60
2019-03-31T21:23:48.178Z,53.00
2019-03-31T21:26:18.006Z,53.70
2019-03-31T21:28:47.481Z,54.20
2019-03-31T21:31:16.902Z,54.50
2019-03-31T21:33:46.391Z,54.80
2019-03-31T21:36:15.868Z,55.40
2019-03-31T21:38:45.394Z,56.00
2019-03-31T21:41:14.982Z,56.20
2019-03-31T21:43:44.418Z,56.40
2019-03-31T21:46:14.129Z,56.70
2019-03-31T21:48:43.615Z,57.10
2019-03-31T21:51:13.875Z,57.30
2019-03-31T21:53:43.356Z,57.30
2019-03-31T21:56:12.808Z,57.50
2019-03-31T21:58:42.273Z,58.50
2019-03-31T22:01:11.859Z,58.60
2019-03-31T22:03:41.313Z,58.70
2019-03-31T22:06:11.139Z,59.30
2019-03-31T22:08:40.645Z,59.10
2019-03-31T22:11:10.138Z,59.80
2019-03-31T22:13:40.618Z,60.70
2019-03-31T22:16:10.098Z,61.00
2019-03-31T22:18:39.526Z,62.20
2019-03-31T22:21:09.415Z,62.60
2019-03-31T22:23:38.909Z,63.50
2019-03-31T22:26:08.368Z,63.80
2019-03-31T22:28:38.006Z,64.00
2019-03-31T22:31:07.782Z,64.20
2019-03-31T22:33:37.769Z,64.90
2019-03-31T22:36:22.199Z,65.90
2019-03-31T22:38:52.735Z,66.30
2019-03-31T22:41:22.415Z,66.80
2019-03-31T22:43:51.999Z,66.70
2019-03-31T22:46:22.541Z,66.80
2019-03-31T22:48:51.999Z,67.70
2019-03-31T22:51:21.419Z,68.10
2019-03-31T22:53:50.960Z,68.50
2019-03-31T22:56:20.383Z,68.50
2019-03-31T22:58:49.878Z,69.10
2019-03-31T23:01:19.310Z,69.40
2019-03-31T23:03:48.897Z,70.00
2019-03-31T23:06:18.524Z,70.00
2019-03-31T23:08:47.994Z,70.40
2019-03-31T23:11:17.470Z,70.40
2019-03-31T23:13:47.192Z,70.40
2019-03-31T23:16:16.650Z,70.50
2019-03-31T23:18:46.666Z,70.90
2019-03-31T23:21:16.422Z,71.10
2019-03-31T23:23:46.040Z,71.20
2019-03-31T23:26:15.745Z,71.30
2019-03-31T23:28:48.030Z,71.20
2019-03-31T23:31:18.237Z,71.70
2019-03-31T23:33:47.675Z,72.00
2019-03-31T23:36:17.157Z,72.40
2019-03-31T23:38:46.707Z,73.20
2019-03-31T23:41:16.485Z,73.90
2019-03-31T23:43:45.945Z,73.60
2019-03-31T23:46:15.707Z,73.00
2019-03-31T23:48:45.367Z,72.70
2019-03-31T23:51:14.845Z,72.60
2019-03-31T23:53:44.668Z,72.80
2019-03-31T23:56:14.091Z,73.10
2019-03-31T23:58:43.522Z,73.00
